Time;durP1;ratioP1;P1;durP2;ratioP2;P2;SDS_P1;SDS_P2;PMS_P1;PMS_P2;Temp;Humidity;BMP_temperature;BMP_pressure;BME280_temperature;BME280_humidity;BME280_pressure;Samples;Min_cycle;Max_cycle;Signal;HPM_P1;HPM_P2
2022/11/10 05:41:31;;;;;;;80.22;68.05;;;;;;;3.41;100.00;101884.41;6194967;22;1374568;-92
2022/11/10 06:45:21;;;;;;;53.83;49.58;;;;;;;8.55;100.00;101944.41;5925172;23;20130;-90
2022/11/10 06:52:15;;;;;;;54.40;49.90;;;;;;;9.52;100.00;101945.38;6012434;23;20405;-90
2022/11/10 06:54:56;;;;;;;54.83;50.40;;;;;;;9.97;100.00;101943.09;6028996;23;20090;-92
2022/11/10 06:57:30;;;;;;;53.38;49.10;;;;;;;9.67;100.00;101937.56;6157692;23;20044;-92
2022/11/10 07:03:28;;;;;;;52.50;48.47;;;;;;;10.75;100.00;101944.88;6156514;23;20500;-89
2022/11/10 07:06:23;;;;;;;;;;;;;;;;;;;;;
2022/11/10 07:08:58;;;;;;;53.20;49.10;;;;;;;10.69;100.00;101937.63;6156976;23;20105;-90
2022/11/10 07:12:08;;;;;;;53.05;49.10;;;;;;;11.06;100.00;101947.44;6157024;23;20366;-89
2022/11/10 07:14:35;;;;;;;52.05;48.10;;;;;;;11.08;100.00;101940.13;6146159;23;20033;-90
2022/11/10 07:17:16;;;;;;;51.80;47.95;;;;;;;11.69;100.00;101945.34;6156706;23;20032;-92
2022/11/10 07:19:45;;;;;;;51.90;48.20;;;;;;;11.71;100.00;101940.69;6156671;23;20017;-92
2022/11/10 07:22:12;;;;;;;51.90;47.92;;;;;;;11.62;100.00;101947.94;6157304;23;20021;-91
2022/11/10 07:24:55;;;;;;;52.35;48.13;;;;;;;12.00;100.00;101944.38;6157143;23;20409;-91
2022/11/10 07:27:30;;;;;;;52.80;48.90;;;;;;;12.14;100.00;101940.84;6157302;23;20022;-92
2022/11/10 07:33:17;;;;;;;53.20;49.10;;;;;;;12.57;100.00;101946.25;6119639;23;20021;-89
2022/11/10 07:35:52;;;;;;;52.75;48.70;;;;;;;12.29;100.00;101935.50;6157005;23;20434;-89
2022/11/10 07:38:25;;;;;;;52.85;48.92;;;;;;;13.27;100.00;101940.13;6156985;23;20017;-90
2022/11/10 07:41:15;;;;;;;52.72;48.92;;;;;;;13.92;100.00;101943.44;6157271;23;20084;-90
2022/11/10 07:43:47;;;;;;;56.58;52.45;;;;;;;13.60;100.00;101944.06;6156505;23;20435;-89
2022/11/10 07:50:03;;;;;;;55.97;51.70;;;;;;;13.87;100.00;101945.03;5978605;24;20136;-91
2022/11/10 07:52:43;;;;;;;56.80;52.50;;;;;;;15.10;100.00;101943.13;6071765;23;20024;-91
2022/11/10 07:55:11;;;;;;;52.53;48.65;;;;;;;15.56;100.00;101943.06;6156557;23;20453;-88
2022/11/10 07:58:23;;;;;;;55.15;51.13;;;;;;;14.35;100.00;101953.88;6156032;23;20036;-92
2022/11/10 08:00:53;;;;;;;55.70;51.45;;;;;;;15.20;100.00;101946.19;6129800;23;20013;-92
2022/11/10 08:03:21;;;;;;;54.17;50.22;;;;;;;14.77;100.00;101949.28;6156081;23;20037;-91
2022/11/10 08:05:48;;;;;;;56.72;52.33;;;;;;;15.41;100.00;101941.66;6156365;23;20049;-93
2022/11/10 08:08:18;;;;;;;55.78;51.65;;;;;;;16.38;100.00;101938.06;6156313;23;20080;-92
2022/11/10 08:10:45;;;;;;;56.63;52.15;;;;;;;17.29;100.00;101939.47;6156725;23;20017;-92
2022/11/10 08:13:13;;;;;;;57.28;52.78;;;;;;;16.86;100.00;101945.63;6156406;23;20335;-92
2022/11/10 08:15:43;;;;;;;59.65;54.65;;;;;;;16.83;100.00;101943.38;6156413;23;20025;-92
2022/11/10 08:18:20;;;;;;;56.55;52.13;;;;;;;17.36;100.00;101948.28;6156911;23;20435;-89
2022/11/10 08:20:48;;;;;;;64.03;57.67;;;;;;;17.07;100.00;101947.09;6156700;23;20426;-89
2022/11/10 08:23:17;;;;;;;60.95;56.45;;;;;;;17.86;100.00;101947.38;6156676;23;20060;-88
2022/11/10 08:25:45;;;;;;;59.28;54.65;;;;;;;17.69;100.00;101939.06;6156641;23;20025;-89
2022/11/10 08:28:14;;;;;;;60.10;54.92;;;;;;;17.87;100.00;101949.03;6156519;23;20442;-88
2022/11/10 08:30:42;;;;;;;60.58;55.88;;;;;;;18.11;100.00;101947.28;6156402;23;20533;-88
2022/11/10 08:33:11;;;;;;;59.13;54.63;;;;;;;17.79;100.00;101947.47;6156374;23;20564;-89
2022/11/10 08:35:40;;;;;;;58.08;53.53;;;;;;;18.00;100.00;101956.94;6156626;23;20032;-89
2022/11/10 08:38:08;;;;;;;56.90;52.60;;;;;;;17.98;100.00;101950.97;6156545;23;20327;-88
2022/11/10 08:40:37;;;;;;;57.10;52.72;;;;;;;18.25;100.00;101953.31;6155632;23;20013;-88
2022/11/10 08:43:06;;;;;;;60.53;56.03;;;;;;;18.73;100.00;101953.28;6156242;23;20037;-88
2022/11/10 08:45:33;;;;;;;58.47;53.95;;;;;;;18.67;100.00;101951.50;6156172;23;20029;-88
2022/11/10 08:48:02;;;;;;;58.50;53.83;;;;;;;18.44;100.00;101949.53;6155323;23;20343;-91
2022/11/10 08:50:29;;;;;;;59.72;54.90;;;;;;;18.66;100.00;101947.13;6156510;23;20078;-91
2022/11/10 08:52:57;;;;;;;60.10;55.45;;;;;;;19.48;99.61;101951.00;6156624;23;20026;-91
2022/11/10 08:55:24;;;;;;;57.78;53.22;;;;;;;18.73;100.00;101949.78;6156471;23;20021;-91
2022/11/10 08:57:52;;;;;;;59.05;54.75;;;;;;;19.26;99.15;101948.09;6156038;23;20028;-91
2022/11/10 09:00:19;;;;;;;60.30;55.60;;;;;;;20.77;88.64;101946.03;6156675;23;20021;-91
2022/11/10 09:02:46;;;;;;;59.45;54.67;;;;;;;19.94;91.00;101944.75;6156710;23;20079;-91
2022/11/10 09:05:19;;;;;;;59.55;55.05;;;;;;;19.44;91.23;101951.47;6156974;23;20022;-91
2022/11/10 09:07:47;;;;;;;60.83;56.42;;;;;;;20.26;90.56;101941.59;6156081;23;20323;-90
2022/11/10 09:10:14;;;;;;;59.20;55.08;;;;;;;20.14;89.57;101947.03;6155994;23;20445;-91
2022/11/10 09:12:42;;;;;;;60.92;56.40;;;;;;;19.71;95.24;101934.84;6156377;23;20025;-90
2022/11/10 09:15:11;;;;;;;64.15;59.38;;;;;;;18.83;100.00;101949.22;6156445;23;20029;-89
2022/11/10 09:17:38;;;;;;;63.28;58.50;;;;;;;20.03;95.81;101934.38;6156497;23;20021;-91
2022/11/10 09:20:06;;;;;;;63.42;58.67;;;;;;;20.55;90.78;101934.34;6156025;23;20017;-91
2022/11/10 09:25:58;;;;;;;63.15;58.33;;;;;;;20.71;81.76;101933.53;6153333;23;20036;-91
2022/11/10 09:31:53;;;;;;;66.70;61.33;;;;;;;21.31;77.24;101931.22;6156432;23;20091;-92
2022/11/10 09:34:46;;;;;;;65.88;60.67;;;;;;;20.91;75.75;101935.75;6156137;23;20312;-92
2022/11/10 09:37:12;;;;;;;66.78;61.97;;;;;;;20.76;87.55;101932.81;6156676;23;20375;-92
2022/11/10 09:43:03;;;;;;;65.53;60.85;;;;;;;20.70;85.07;101929.19;6155653;23;20032;-91
2022/11/10 09:45:49;;;;;;;62.30;57.58;;;;;;;22.33;67.98;101930.66;6156637;23;20084;-92
2022/11/10 09:51:09;;;;;;;69.22;63.92;;;;;;;22.60;66.79;101927.06;6066497;23;20015;-84
2022/11/10 09:53:41;;;;;;;67.68;61.92;;;;;;;22.44;59.30;101930.72;6141327;23;20025;-85
2022/11/10 09:56:16;;;;;;;61.35;56.63;;;;;;;21.06;74.84;101924.38;6157889;23;20466;-86
2022/11/10 09:58:45;;;;;;;68.53;63.78;;;;;;;20.80;84.63;101926.66;6157942;23;20025;-85
2022/11/10 10:01:29;;;;;;;67.63;62.65;;;;;;;22.66;67.53;101922.53;6157682;23;20025;-84
2022/11/10 10:04:06;;;;;;;66.13;61.05;;;;;;;21.96;71.52;101925.88;6157604;23;20026;-84
2022/11/10 10:06:36;;;;;;;112.30;80.53;;;;;;;23.36;65.67;101931.44;6157775;23;20032;-83
2022/11/10 10:09:26;;;;;;;79.85;71.18;;;;;;;23.36;60.49;101926.88;6157940;23;20036;-91
2022/11/10 10:12:23;;;;;;;74.68;67.93;;;;;;;21.46;67.64;101929.56;6160234;23;20017;-91
2022/11/10 10:15:24;;;;;;;71.07;65.07;;;;;;;21.86;71.64;101922.25;6158178;23;20374;-90
